Time;durP1;ratioP1;P1;durP2;ratioP2;P2;SDS_P1;SDS_P2;PMS_P1;PMS_P2;Temp;Humidity;BMP_temperature;BMP_pressure;BME280_temperature;BME280_humidity;BME280_pressure;Samples;Min_cycle;Max_cycle;Signal;HPM_P1;HPM_P2
2022/06/20 00:00:43;;;;;;;8.27;6.20;;;19.30;76.10;;;;;;4862838;29;20223;-67
2022/06/20 00:03:20;;;;;;;7.30;6.67;;;19.30;76.20;;;;;;4862062;29;20197;-67
2022/06/20 00:05:46;;;;;;;7.10;6.23;;;19.30;76.40;;;;;;4896927;29;20611;-67
2022/06/20 00:08:12;;;;;;;6.47;5.87;;;19.30;76.30;;;;;;4884009;29;20282;-67
2022/06/20 00:10:41;;;;;;;8.77;7.13;;;19.40;76.40;;;;;;4883782;29;20207;-67
2022/06/20 00:13:17;;;;;;;7.87;6.60;;;19.30;76.70;;;;;;4877797;29;20192;-67
2022/06/20 00:15:42;;;;;;;6.80;6.10;;;19.30;76.90;;;;;;4883165;29;20288;-67
2022/06/20 00:18:10;;;;;;;6.77;6.27;;;19.30;76.80;;;;;;4854098;29;20303;-67
2022/06/20 00:20:35;;;;;;;6.93;6.23;;;19.20;77.10;;;;;;4883916;29;20192;-67
2022/06/20 00:23:01;;;;;;;6.70;5.87;;;19.30;76.70;;;;;;4846776;29;20204;-67
2022/06/20 00:25:27;;;;;;;7.80;7.03;;;19.20;76.60;;;;;;4843128;29;20232;-67
2022/06/20 00:27:53;;;;;;;7.57;6.30;;;19.20;77.00;;;;;;4848102;29;20193;-67
2022/06/20 00:30:20;;;;;;;6.67;6.03;;;19.20;77.10;;;;;;4869992;29;20221;-67
2022/06/20 00:32:46;;;;;;;7.87;7.17;;;19.20;77.00;;;;;;4880450;29;20239;-67
2022/06/20 00:35:12;;;;;;;7.43;6.70;;;19.20;77.30;;;;;;4882965;29;20196;-67
2022/06/20 00:37:38;;;;;;;8.23;6.77;;;19.10;77.30;;;;;;4866672;29;20223;-67
2022/06/20 00:40:16;;;;;;;7.93;6.97;;;19.10;77.20;;;;;;4868004;29;20192;-67
2022/06/20 00:42:41;;;;;;;8.93;7.17;;;19.10;77.40;;;;;;4883373;29;20226;-67
2022/06/20 00:45:10;;;;;;;9.63;7.03;;;19.10;77.50;;;;;;4852651;29;20204;-67
2022/06/20 00:47:37;;;;;;;9.17;6.97;;;19.10;77.70;;;;;;4880803;29;20200;-67
2022/06/20 00:50:09;;;;;;;9.77;7.37;;;19.20;77.50;;;;;;4881811;29;20200;-67
2022/06/20 00:52:38;;;;;;;10.67;7.03;;;19.10;77.70;;;;;;4899825;29;20187;-67
2022/06/20 00:55:17;;;;;;;7.83;7.13;;;19.00;77.90;;;;;;4879858;29;20192;-67
2022/06/20 00:58:00;;;;;;;7.33;6.67;;;19.00;78.10;;;;;;4884339;29;20215;-67
2022/06/20 01:00:30;;;;;;;7.13;6.53;;;19.00;78.10;;;;;;4896620;29;20279;-67
2022/06/20 01:03:18;;;;;;;10.27;7.20;;;18.90;78.20;;;;;;4879685;29;20192;-67
2022/06/20 01:06:08;;;;;;;7.63;7.03;;;18.90;78.20;;;;;;4881006;29;20211;-67
2022/06/20 01:08:58;;;;;;;7.70;7.00;;;18.80;78.60;;;;;;4866297;29;20196;-67
2022/06/20 01:11:27;;;;;;;7.40;6.80;;;18.80;78.90;;;;;;4888483;29;20203;-67
2022/06/20 01:13:53;;;;;;;8.43;7.53;;;18.80;78.90;;;;;;4883064;29;20199;-67
2022/06/20 01:16:30;;;;;;;8.23;7.23;;;18.80;79.00;;;;;;4856216;29;20224;-67
2022/06/20 01:19:00;;;;;;;7.57;6.87;;;18.70;78.90;;;;;;4878099;29;20260;-67
2022/06/20 01:21:32;;;;;;;7.33;6.47;;;18.70;79.00;;;;;;4878298;29;20252;-67
2022/06/20 01:24:01;;;;;;;7.97;7.23;;;18.70;79.20;;;;;;4882538;29;20197;-67
2022/06/20 01:26:41;;;;;;;8.67;7.20;;;18.70;79.20;;;;;;4882534;29;20231;-67
2022/06/20 01:29:09;;;;;;;7.80;7.17;;;18.70;79.30;;;;;;4871027;29;20193;-67
2022/06/20 01:31:56;;;;;;;9.00;7.30;;;18.70;79.00;;;;;;4866347;29;20197;-67
2022/06/20 01:34:22;;;;;;;8.20;7.40;;;18.70;79.00;;;;;;4859302;29;20226;-67
2022/06/20 01:39:45;;;;;;;7.70;7.00;;;18.60;79.30;;;;;;4886161;29;20186;-67
2022/06/20 01:42:19;;;;;;;7.63;6.93;;;18.60;79.30;;;;;;4856339;29;20201;-67
2022/06/20 01:45:03;;;;;;;7.50;6.80;;;18.60;79.40;;;;;;4880946;29;20192;-67
2022/06/20 01:47:29;;;;;;;8.47;7.67;;;18.50;79.50;;;;;;4882763;29;20283;-67
2022/06/20 01:50:04;;;;;;;8.47;7.57;;;18.50;79.50;;;;;;4893166;29;20191;-67
2022/06/20 01:52:48;;;;;;;8.23;7.43;;;18.50;79.60;;;;;;4885268;29;20203;-67
2022/06/20 01:55:18;;;;;;;7.97;6.93;;;18.60;79.60;;;;;;4882345;29;20206;-67
2022/06/20 01:57:48;;;;;;;6.97;6.37;;;18.50;79.70;;;;;;4898616;29;20211;-67
2022/06/20 02:00:23;;;;;;;9.07;7.53;;;18.50;80.00;;;;;;4886735;29;20263;-68
2022/06/20 02:03:13;;;;;;;8.67;7.50;;;18.50;80.00;;;;;;4888839;29;20219;-67
2022/06/20 02:05:42;;;;;;;8.23;7.43;;;18.40;80.20;;;;;;4870997;29;20282;-67
2022/06/20 02:08:08;;;;;;;8.63;7.83;;;18.40;80.50;;;;;;4877416;29;20192;-67
2022/06/20 02:10:47;;;;;;;7.33;6.73;;;18.40;80.40;;;;;;4879089;29;20199;-67
2022/06/20 02:13:14;;;;;;;9.03;8.10;;;18.30;80.40;;;;;;4874243;29;20276;-67
2022/06/20 02:15:41;;;;;;;9.47;7.60;;;18.30;80.70;;;;;;4856503;29;20218;-67
2022/06/20 02:18:08;;;;;;;8.70;7.97;;;18.30;80.70;;;;;;4877238;29;20214;-67
2022/06/20 02:20:45;;;;;;;8.30;7.57;;;18.30;80.50;;;;;;4882200;29;20191;-67
2022/06/20 02:23:22;;;;;;;8.80;7.37;;;18.30;80.60;;;;;;4897346;29;20175;-67
2022/06/20 02:25:52;;;;;;;9.27;8.00;;;18.30;80.90;;;;;;4881480;29;20232;-67
2022/06/20 02:28:23;;;;;;;8.70;7.90;;;18.30;80.90;;;;;;4881902;29;20191;-67
2022/06/20 02:30:49;;;;;;;8.50;7.80;;;18.30;80.60;;;;;;4881742;29;20188;-67
2022/06/20 02:33:22;;;;;;;8.83;7.10;;;18.20;80.80;;;;;;4866611;29;20254;-67
2022/06/20 02:35:49;;;;;;;8.60;7.80;;;18.20;80.80;;;;;;4880941;29;20196;-67
2022/06/20 02:38:15;;;;;;;9.63;8.57;;;18.20;80.90;;;;;;4857692;29;20220;-67
2022/06/20 02:40:42;;;;;;;8.27;7.60;;;18.20;81.10;;;;;;4877342;29;20193;-67
2022/06/20 02:43:22;;;;;;;10.13;8.63;;;18.20;81.30;;;;;;4873146;29;20212;-68
2022/06/20 02:45:49;;;;;;;8.80;7.90;;;18.10;81.30;;;;;;4898223;29;20216;-67
2022/06/20 02:48:16;;;;;;;12.20;8.03;;;18.20;81.10;;;;;;4881637;29;20239;-67
2022/06/20 02:50:50;;;;;;;8.60;7.80;;;18.10;80.90;;;;;;4862230;29;20193;-67
2022/06/20 02:53:34;;;;;;;9.03;8.17;;;18.10;81.10;;;;;;4879943;29;20187;-67
2022/06/20 02:56:01;;;;;;;8.53;7.77;;;18.10;81.30;;;;;;4876045;29;20275;-67
2022/06/20 02:58:30;;;;;;;8.97;8.07;;;18.00;81.40;;;;;;4864418;29;20274;-67
2022/06/20 03:01:04;;;;;;;9.73;8.30;;;18.00;81.60;;;;;;4868438;29;20263;-67
2022/06/20 03:03:34;;;;;;;8.30;7.60;;;18.00;81.60;;;;;;4877148;29;20195;-67
2022/06/20 03:06:01;;;;;;;9.50;8.60;;;18.00;81.90;;;;;;4878657;29;20244;-67
2022/06/20 03:08:27;;;;;;;9.50;8.60;;;17.90;81.80;;;;;;4866263;29;20192;-67
2022/06/20 03:10:54;;;;;;;8.60;7.73;;;18.00;81.80;;;;;;4879631;29;20203;-67
2022/06/20 03:13:22;;;;;;;12.80;8.47;;;18.00;81.80;;;;;;4858197;29;20202;-67
2022/06/20 03:15:50;;;;;;;9.20;8.23;;;17.90;81.90;;;;;;4877247;29;20193;-67
2022/06/20 03:18:19;;;;;;;8.83;7.93;;;18.00;81.90;;;;;;4883891;29;20211;-67
2022/06/20 03:20:45;;;;;;;11.30;7.90;;;17.90;82.10;;;;;;4879220;29;20180;-67
2022/06/20 03:23:21;;;;;;;9.87;8.67;;;17.90;82.10;;;;;;4866930;29;20196;-67
2022/06/20 03:25:48;;;;;;;13.23;8.37;;;17.90;82.10;;;;;;4876951;29;20228;-66
2022/06/20 03:28:19;;;;;;;9.23;8.33;;;17.90;82.20;;;;;;4879657;29;20191;-67
2022/06/20 03:30:45;;;;;;;9.77;8.87;;;17.80;82.30;;;;;;4900545;29;20197;-67
2022/06/20 03:33:13;;;;;;;11.30;9.43;;;17.80;82.50;;;;;;4897393;29;20199;-67
2022/06/20 03:35:47;;;;;;;11.20;9.83;;;17.80;82.50;;;;;;4896693;29;20200;-67
2022/06/20 03:38:15;;;;;;;9.80;8.83;;;17.80;82.50;;;;;;4884541;29;20315;-67
2022/06/20 03:40:42;;;;;;;9.80;8.90;;;17.90;82.30;;;;;;4867540;29;20197;-66
2022/06/20 03:43:11;;;;;;;9.97;8.97;;;17.90;82.40;;;;;;4879036;29;20230;-66
2022/06/20 03:45:41;;;;;;;8.57;7.87;;;17.90;82.30;;;;;;4880047;29;20198;-66
2022/06/20 03:48:18;;;;;;;12.03;8.77;;;17.90;82.50;;;;;;4870629;29;20219;-67
2022/06/20 03:51:03;;;;;;;10.17;9.13;;;17.90;82.80;;;;;;4885277;29;20203;-67
2022/06/20 03:53:46;;;;;;;9.40;8.50;;;17.90;82.30;;;;;;4883081;29;20195;-69
2022/06/20 03:56:32;;;;;;;9.47;8.50;;;17.90;82.20;;;;;;4871412;29;20225;-68
2022/06/20 03:59:07;;;;;;;11.30;10.23;;;17.90;82.30;;;;;;4882788;29;20189;-71
2022/06/20 04:01:44;;;;;;;10.03;9.13;;;17.90;82.40;;;;;;4877440;29;20192;-73
2022/06/20 04:04:29;;;;;;;9.77;8.87;;;17.90;82.50;;;;;;4887149;29;20184;-71
2022/06/20 04:07:06;;;;;;;10.20;9.10;;;17.90;82.70;;;;;;4884190;29;20183;-70
2022/06/20 04:12:36;;;;;;;10.57;9.57;;;17.90;82.60;;;;;;4884660;29;20227;-71
2022/06/20 04:15:10;;;;;;;9.77;8.77;;;18.00;82.40;;;;;;4876882;29;20199;-70
2022/06/20 04:20:50;;;;;;;9.23;8.33;;;18.00;82.40;;;;;;4893530;29;20195;-70
2022/06/20 04:23:34;;;;;;;10.47;9.23;;;18.00;82.60;;;;;;4899881;29;20193;-70
2022/06/20 04:26:04;;;;;;;10.77;9.30;;;18.00;82.90;;;;;;4895163;29;20266;-69
2022/06/20 04:28:44;;;;;;;10.67;9.57;;;18.10;83.10;;;;;;4891243;29;20196;-70
2022/06/20 04:31:38;;;;;;;10.23;9.23;;;18.10;83.00;;;;;;4877226;29;20203;-70
2022/06/20 04:34:30;;;;;;;10.27;9.20;;;18.10;82.70;;;;;;4881825;29;20207;-70
2022/06/20 04:37:02;;;;;;;10.97;9.63;;;18.20;82.70;;;;;;4876510;29;20215;-70
2022/06/20 04:39:44;;;;;;;10.27;9.00;;;18.20;82.90;;;;;;4871204;29;20202;-69
2022/06/20 04:42:45;;;;;;;9.83;8.83;;;18.30;82.90;;;;;;4881590;29;20206;-69
2022/06/20 04:45:18;;;;;;;12.10;9.33;;;18.30;83.20;;;;;;4862510;29;20281;-68
2022/06/20 04:47:55;;;;;;;11.90;10.07;;;18.30;83.10;;;;;;4881863;29;20205;-68
2022/06/20 04:50:27;;;;;;;11.00;9.77;;;18.30;83.30;;;;;;4885516;29;20192;-68
2022/06/20 04:53:06;;;;;;;10.90;9.80;;;18.40;83.30;;;;;;4874596;29;20200;-68
2022/06/20 04:55:33;;;;;;;11.00;9.90;;;18.30;83.50;;;;;;4869926;29;20197;-69
2022/06/20 04:58:04;;;;;;;11.20;10.17;;;18.40;83.40;;;;;;4855348;29;20227;-69
2022/06/20 05:00:37;;;;;;;12.77;9.47;;;18.50;83.30;;;;;;4868210;29;20239;-69
2022/06/20 05:03:06;;;;;;;12.20;9.70;;;18.50;83.40;;;;;;4873307;29;20217;-70
2022/06/20 05:05:37;;;;;;;13.47;10.00;;;18.60;83.50;;;;;;4887659;29;20204;-70
2022/06/20 05:08:06;;;;;;;11.60;9.80;;;18.60;83.50;;;;;;4881591;29;20196;-70
2022/06/20 05:10:48;;;;;;;12.00;8.93;;;18.60;83.40;;;;;;4872995;29;20200;-71
2022/06/20 05:13:19;;;;;;;10.53;9.13;;;18.70;83.40;;;;;;4877332;29;20284;-71
2022/06/20 05:15:47;;;;;;;12.63;10.63;;;18.80;83.30;;;;;;4876075;29;20251;-72
2022/06/20 05:18:40;;;;;;;11.60;10.37;;;18.70;83.30;;;;;;4868260;29;20264;-72
2022/06/20 05:21:43;;;;;;;10.83;9.73;;;18.80;83.30;;;;;;4865600;29;20196;-70
2022/06/20 05:24:16;;;;;;;11.33;9.70;;;18.80;83.10;;;;;;4878794;29;20283;-71
2022/06/20 05:26:45;;;;;;;10.37;9.30;;;18.90;83.10;;;;;;4881356;29;20231;-71
2022/06/20 05:29:31;;;;;;;15.27;10.50;;;19.00;83.10;;;;;;4880332;29;20287;-71
2022/06/20 05:32:02;;;;;;;12.60;10.63;;;19.00;83.30;;;;;;4876148;29;20230;-71
2022/06/20 05:34:44;;;;;;;13.77;10.20;;;19.00;83.50;;;;;;4880938;29;20200;-71
2022/06/20 05:37:34;;;;;;;11.27;10.07;;;19.00;83.60;;;;;;4879323;29;20227;-71
2022/06/20 05:40:09;;;;;;;12.40;11.07;;;19.10;83.10;;;;;;4869111;29;20202;-73
2022/06/20 05:42:35;;;;;;;10.60;9.63;;;19.20;82.80;;;;;;4876483;29;20202;-72
2022/06/20 05:45:01;;;;;;;13.80;11.00;;;19.30;82.50;;;;;;4869374;29;20195;-71
2022/06/20 05:47:34;;;;;;;11.43;9.87;;;19.30;82.10;;;;;;4857625;29;20205;-71
2022/06/20 05:50:34;;;;;;;11.60;10.40;;;19.30;81.80;;;;;;4880392;29;20191;-72
2022/06/20 05:53:04;;;;;;;11.77;10.63;;;19.40;81.80;;;;;;4871840;29;20271;-71
2022/06/20 05:55:57;;;;;;;11.10;10.03;;;19.50;81.80;;;;;;4873841;29;20197;-71
2022/06/20 05:58:28;;;;;;;11.60;10.33;;;19.50;81.30;;;;;;4875971;29;20243;-71
2022/06/20 06:00:57;;;;;;;11.30;10.07;;;19.60;81.30;;;;;;4878984;29;20191;-71
2022/06/20 06:03:38;;;;;;;13.47;11.53;;;19.60;81.60;;;;;;4876757;29;20199;-69
2022/06/20 06:06:23;;;;;;;13.23;10.73;;;19.60;81.80;;;;;;4872709;29;20223;-71
2022/06/20 06:08:55;;;;;;;12.03;10.50;;;19.70;81.80;;;;;;4894907;29;20195;-71
2022/06/20 06:11:30;;;;;;;13.03;10.43;;;19.80;81.80;;;;;;4867811;29;20197;-71
2022/06/20 06:14:17;;;;;;;11.77;10.63;;;19.70;82.00;;;;;;4862281;29;20203;-72
2022/06/20 06:16:55;;;;;;;14.40;11.03;;;19.80;81.80;;;;;;4869174;29;20451;-71
2022/06/20 06:19:48;;;;;;;13.77;10.60;;;19.80;81.60;;;;;;4879922;29;20282;-71
2022/06/20 06:22:29;;;;;;;16.67;10.83;;;19.80;81.40;;;;;;4883804;29;20197;-71
2022/06/20 06:24:58;;;;;;;14.47;10.53;;;19.90;81.10;;;;;;4882882;29;20231;-71
2022/06/20 06:27:27;;;;;;;12.90;10.47;;;19.90;80.80;;;;;;4896835;29;20200;-71
2022/06/20 06:30:07;;;;;;;16.13;10.77;;;20.00;80.70;;;;;;4879729;29;20199;-71
2022/06/20 06:32:49;;;;;;;12.67;11.07;;;20.00;80.50;;;;;;4872205;29;20200;-71
2022/06/20 06:35:19;;;;;;;12.50;11.13;;;20.10;80.40;;;;;;4874513;29;20207;-71
2022/06/20 06:37:55;;;;;;;12.63;10.53;;;20.10;80.00;;;;;;4874443;29;20228;-71
2022/06/20 06:40:25;;;;;;;15.27;10.40;;;20.20;80.10;;;;;;4877112;29;20192;-71
2022/06/20 06:42:55;;;;;;;15.77;10.90;;;20.20;80.30;;;;;;4874042;29;20196;-72
2022/06/20 06:45:25;;;;;;;13.70;11.93;;;20.30;79.80;;;;;;4875815;29;20199;-71
2022/06/20 06:48:01;;;;;;;13.90;10.87;;;20.30;79.80;;;;;;4864943;29;20200;-71
2022/06/20 06:50:34;;;;;;;12.03;10.87;;;20.40;79.60;;;;;;4878643;29;20198;-71
2022/06/20 06:53:09;;;;;;;14.20;10.63;;;20.40;79.60;;;;;;4867619;29;20232;-71
2022/06/20 06:55:45;;;;;;;14.30;11.27;;;20.50;79.40;;;;;;4869682;29;20264;-72
2022/06/20 06:58:39;;;;;;;14.87;11.13;;;20.60;79.80;;;;;;4879377;29;20223;-72
2022/06/20 07:01:38;;;;;;;12.37;11.27;;;20.70;79.80;;;;;;4866370;29;20203;-71
2022/06/20 07:04:13;;;;;;;15.73;11.60;;;20.70;79.20;;;;;;4893567;29;20214;-72
2022/06/20 07:06:50;;;;;;;12.17;10.87;;;20.80;79.50;;;;;;4871972;29;20197;-71
2022/06/20 07:09:35;;;;;;;14.13;10.80;;;20.90;78.90;;;;;;4880176;29;20247;-72
2022/06/20 07:12:19;;;;;;;13.13;10.70;;;21.00;78.80;;;;;;4873739;29;20189;-72
2022/06/20 07:14:57;;;;;;;11.90;10.10;;;21.00;79.00;;;;;;4878097;29;20192;-72
2022/06/20 07:17:33;;;;;;;13.83;12.10;;;21.00;79.10;;;;;;4876229;29;20267;-72
2022/06/20 07:20:01;;;;;;;12.17;10.93;;;21.00;79.90;;;;;;4870745;29;20195;-72
2022/06/20 07:22:27;;;;;;;14.27;10.93;;;21.10;79.80;;;;;;4863190;29;20248;-71
2022/06/20 07:24:54;;;;;;;12.07;10.83;;;21.10;79.50;;;;;;4865092;29;20285;-71
2022/06/20 07:27:36;;;;;;;14.43;10.97;;;21.20;79.20;;;;;;4863961;29;20200;-72
2022/06/20 07:30:18;;;;;;;14.20;10.53;;;21.20;78.70;;;;;;4876914;29;20199;-72
2022/06/20 07:33:00;;;;;;;13.00;10.20;;;21.30;78.20;;;;;;4889603;29;20200;-72
2022/06/20 07:35:40;;;;;;;12.03;10.83;;;21.50;76.60;;;;;;4872577;29;20196;-72
2022/06/20 07:38:14;;;;;;;12.77;11.00;;;21.50;76.70;;;;;;4870528;29;20219;-71
2022/06/20 07:40:52;;;;;;;11.80;10.53;;;21.50;76.80;;;;;;4878171;29;20188;-72
2022/06/20 07:43:27;;;;;;;11.40;10.30;;;21.60;76.60;;;;;;4881983;29;20205;-72
2022/06/20 07:45:54;;;;;;;11.90;10.67;;;21.70;76.90;;;;;;4868706;29;20219;-71
2022/06/20 07:48:33;;;;;;;15.20;9.97;;;21.80;76.30;;;;;;4863654;29;20202;-71
2022/06/20 07:51:30;;;;;;;20.67;10.67;;;22.00;74.60;;;;;;4887089;29;20242;-72
2022/06/20 07:54:02;;;;;;;12.83;10.43;;;22.50;73.00;;;;;;4876606;29;20218;-72
2022/06/20 07:56:46;;;;;;;12.90;10.50;;;22.50;72.70;;;;;;4881903;29;20199;-72
2022/06/20 07:59:22;;;;;;;11.47;10.33;;;22.50;72.20;;;;;;4886404;29;20285;-72
2022/06/20 08:01:57;;;;;;;15.63;10.63;;;22.50;73.00;;;;;;4894069;29;20198;-72
2022/06/20 08:04:29;;;;;;;12.23;10.00;;;22.70;72.20;;;;;;4881486;29;20191;-72
2022/06/20 08:07:01;;;;;;;13.30;10.23;;;22.70;72.80;;;;;;4888639;29;20200;-72
2022/06/20 08:09:52;;;;;;;15.17;10.20;;;22.70;72.50;;;;;;4894238;29;20203;-72
2022/06/20 08:12:26;;;;;;;10.67;9.63;;;22.80;71.70;;;;;;4887775;29;20290;-72
2022/06/20 08:15:02;;;;;;;11.73;9.50;;;22.80;71.60;;;;;;4869226;29;20242;-72
2022/06/20 08:17:29;;;;;;;12.60;10.10;;;22.90;71.00;;;;;;4878041;29;20268;-72
2022/06/20 08:19:57;;;;;;;15.13;10.20;;;23.00;71.20;;;;;;4867933;29;20215;-72
2022/06/20 08:22:24;;;;;;;10.70;9.70;;;23.10;71.10;;;;;;4881371;29;20187;-72
2022/06/20 08:24:57;;;;;;;11.17;10.07;;;23.10;71.20;;;;;;4878054;29;20292;-72
2022/06/20 08:27:44;;;;;;;10.33;9.30;;;23.20;70.20;;;;;;4879195;29;20209;-72
2022/06/20 08:30:15;;;;;;;10.87;9.80;;;23.40;69.30;;;;;;4876430;29;20205;-72
2022/06/20 08:32:52;;;;;;;11.37;9.47;;;23.30;69.30;;;;;;4891288;29;20250;-72
2022/06/20 08:35:33;;;;;;;12.33;9.13;;;23.30;70.40;;;;;;4879253;29;20195;-72
2022/06/20 08:38:20;;;;;;;12.80;10.00;;;23.50;69.30;;;;;;4887779;29;20217;-72
2022/06/20 08:40:55;;;;;;;10.67;9.57;;;23.50;70.30;;;;;;4870045;29;20199;-72
2022/06/20 08:43:41;;;;;;;10.23;9.23;;;23.60;70.40;;;;;;4882309;29;20195;-72
2022/06/20 08:46:28;;;;;;;11.57;10.40;;;23.70;69.40;;;;;;4872331;29;20195;-72
2022/06/20 08:49:37;;;;;;;14.27;9.67;;;23.80;68.50;;;;;;4896766;29;20247;-72
2022/06/20 08:52:46;;;;;;;11.57;10.47;;;23.90;69.40;;;;;;4862525;29;20207;-72
2022/06/20 08:55:23;;;;;;;10.53;9.53;;;23.90;70.50;;;;;;4898851;29;20271;-72
2022/06/20 08:58:02;;;;;;;11.17;10.07;;;24.00;69.50;;;;;;4869322;29;20226;-72
2022/06/20 09:00:57;;;;;;;10.87;9.77;;;24.10;67.70;;;;;;4875256;29;20278;-72
2022/06/20 09:03:44;;;;;;;10.90;9.80;;;24.20;69.60;;;;;;4888639;29;20232;-72
2022/06/20 09:06:24;;;;;;;10.70;9.30;;;24.20;69.00;;;;;;4881570;29;20195;-72
2022/06/20 09:09:02;;;;;;;10.87;9.60;;;24.20;68.50;;;;;;4881640;29;20199;-72
2022/06/20 09:11:48;;;;;;;10.57;9.57;;;24.30;70.20;;;;;;4883215;29;20224;-72
2022/06/20 09:14:31;;;;;;;10.57;9.53;;;24.40;68.90;;;;;;4865764;29;20192;-72
2022/06/20 09:17:25;;;;;;;10.13;9.20;;;24.50;67.90;;;;;;4876064;29;20331;-72
2022/06/20 09:20:00;;;;;;;14.00;10.60;;;24.80;66.20;;;;;;4870601;29;20204;-72
2022/06/20 09:22:25;;;;;;;11.57;10.37;;;24.80;67.30;;;;;;4875799;29;20198;-72
2022/06/20 09:25:10;;;;;;;12.03;9.43;;;24.80;66.80;;;;;;4861794;29;20232;-72
2022/06/20 09:27:53;;;;;;;15.60;10.73;;;24.90;68.60;;;;;;4876244;29;20221;-72
2022/06/20 09:30:32;;;;;;;10.90;9.90;;;25.20;66.00;;;;;;4878165;29;20203;-72
2022/06/20 09:33:23;;;;;;;11.33;10.13;;;25.20;66.80;;;;;;4872700;29;20267;-72
2022/06/20 09:35:48;;;;;;;12.43;10.83;;;25.20;65.80;;;;;;4876385;29;20191;-72
2022/06/20 09:38:23;;;;;;;11.50;10.30;;;25.30;64.00;;;;;;4878156;29;20226;-72
2022/06/20 09:41:07;;;;;;;11.47;10.33;;;25.30;64.70;;;;;;4871444;29;20198;-72
2022/06/20 09:43:44;;;;;;;10.87;9.73;;;25.40;66.50;;;;;;4890688;29;20192;-72
2022/06/20 09:46:47;;;;;;;11.53;10.33;;;25.50;67.20;;;;;;4876521;29;20271;-72
2022/06/20 09:49:45;;;;;;;12.03;10.17;;;25.60;66.80;;;;;;4877625;29;20263;-73
2022/06/20 09:52:31;;;;;;;12.67;10.80;;;25.70;66.90;;;;;;4850673;29;20207;-73
2022/06/20 09:54:57;;;;;;;11.97;10.37;;;25.80;66.50;;;;;;4872151;29;20197;-72
2022/06/20 09:57:50;;;;;;;13.50;10.60;;;26.00;63.90;;;;;;4879012;29;20231;-72
2022/06/20 10:00:20;;;;;;;14.07;10.03;;;26.20;61.90;;;;;;4866051;29;20203;-72
2022/06/20 10:03:08;;;;;;;12.40;9.60;;;26.40;62.90;;;;;;4883678;29;20200;-72
2022/06/20 10:05:42;;;;;;;10.53;9.67;;;26.40;63.10;;;;;;4873324;29;20219;-72
2022/06/20 10:08:16;;;;;;;13.43;10.30;;;26.40;64.10;;;;;;4869662;29;20203;-73
2022/06/20 10:10:50;;;;;;;9.87;9.07;;;26.40;63.50;;;;;;4866986;29;20234;-73
2022/06/20 10:13:33;;;;;;;11.13;10.13;;;26.40;61.80;;;;;;4879777;29;20199;-73
2022/06/20 10:16:14;;;;;;;13.00;10.00;;;26.60;62.40;;;;;;4870589;29;20202;-73
2022/06/20 10:19:01;;;;;;;11.27;9.37;;;26.70;60.50;;;;;;4878158;29;20211;-73
2022/06/20 10:21:44;;;;;;;10.07;9.17;;;26.90;60.90;;;;;;4872956;29;20214;-73
2022/06/20 10:24:10;;;;;;;11.07;9.60;;;27.00;62.10;;;;;;4867236;29;20206;-73
2022/06/20 10:27:00;;;;;;;11.20;9.97;;;27.10;62.60;;;;;;4881734;29;20302;-73
2022/06/20 10:29:35;;;;;;;10.40;9.40;;;27.20;61.20;;;;;;4868651;29;20192;-73
2022/06/20 10:32:16;;;;;;;10.07;9.07;;;27.30;60.10;;;;;;4881750;29;20187;-73
2022/06/20 10:34:59;;;;;;;9.83;8.93;;;27.40;59.60;;;;;;4877290;29;20300;-73
2022/06/20 10:37:33;;;;;;;9.93;8.93;;;27.50;59.30;;;;;;4878431;29;20221;-73
2022/06/20 10:40:17;;;;;;;9.63;8.73;;;27.40;58.30;;;;;;4880664;29;20224;-73
2022/06/20 10:42:55;;;;;;;9.47;8.47;;;27.30;59.10;;;;;;4884523;29;20319;-73
2022/06/20 10:45:42;;;;;;;10.53;9.53;;;27.50;59.30;;;;;;4883356;29;20189;-73
2022/06/20 10:48:14;;;;;;;9.20;8.37;;;27.70;57.80;;;;;;4883731;29;20195;-73
2022/06/20 10:50:49;;;;;;;9.23;8.43;;;27.70;58.50;;;;;;4872385;29;20200;-73
2022/06/20 10:53:15;;;;;;;9.07;8.20;;;27.80;58.40;;;;;;4887893;29;20188;-74
2022/06/20 10:55:48;;;;;;;9.10;8.30;;;27.90;56.30;;;;;;4885800;29;20196;-73
2022/06/20 10:58:41;;;;;;;9.33;8.47;;;28.00;57.50;;;;;;4883742;29;20218;-72
2022/06/20 11:01:40;;;;;;;9.43;8.50;;;28.20;55.70;;;;;;4884473;29;20199;-73
2022/06/20 11:04:17;;;;;;;11.63;8.50;;;28.20;55.10;;;;;;4884966;29;20195;-74
2022/06/20 11:06:52;;;;;;;11.93;8.77;;;28.20;57.50;;;;;;4882029;29;20248;-75
2022/06/20 11:09:27;;;;;;;9.63;8.70;;;28.20;56.70;;;;;;4889342;29;20281;-74
2022/06/20 11:12:12;;;;;;;8.97;8.10;;;28.30;56.00;;;;;;4883733;29;20235;-74
2022/06/20 11:14:49;;;;;;;10.00;8.83;;;28.60;56.90;;;;;;4885867;29;20187;-74
2022/06/20 11:17:24;;;;;;;9.33;8.47;;;28.70;54.00;;;;;;4884744;29;20223;-74
2022/06/20 11:20:16;;;;;;;12.17;8.77;;;28.80;57.40;;;;;;4885608;29;20247;-74
2022/06/20 11:22:45;;;;;;;8.90;7.97;;;29.00;54.30;;;;;;4886060;29;20192;-75
2022/06/20 11:25:39;;;;;;;9.40;8.60;;;29.20;53.00;;;;;;4878341;29;20263;-75
2022/06/20 11:28:05;;;;;;;10.67;8.43;;;29.30;57.20;;;;;;4882599;29;20250;-74
2022/06/20 11:30:55;;;;;;;10.20;8.67;;;29.40;53.10;;;;;;4884946;29;20270;-74
2022/06/20 11:36:20;;;;;;;9.27;8.27;;;29.40;51.30;;;;;;4900605;29;20198;-74
2022/06/20 11:39:38;;;;;;;9.67;8.67;;;29.30;54.50;;;;;;4880141;29;20203;-75
2022/06/20 11:42:19;;;;;;;8.77;7.97;;;29.10;52.70;;;;;;4856526;29;20230;-75
2022/06/20 11:45:21;;;;;;;9.00;8.10;;;29.00;54.40;;;;;;4884745;29;20262;-74
2022/06/20 11:47:46;;;;;;;8.37;7.67;;;28.80;56.80;;;;;;4877175;29;20184;-74
2022/06/20 11:50:13;;;;;;;11.10;7.93;;;28.80;59.30;;;;;;4874820;29;20197;-74
2022/06/20 11:53:03;;;;;;;9.73;8.83;;;28.80;59.70;;;;;;4879618;29;20195;-74
2022/06/20 11:55:35;;;;;;;9.40;8.27;;;28.80;59.20;;;;;;4871101;29;20311;-74
2022/06/20 11:58:09;;;;;;;9.53;8.33;;;28.80;60.10;;;;;;4898556;29;20215;-74
2022/06/20 12:01:01;;;;;;;9.50;8.57;;;28.70;59.40;;;;;;4881532;29;20191;-74
2022/06/20 12:03:44;;;;;;;10.83;7.93;;;28.70;61.20;;;;;;4876659;29;20207;-74
2022/06/20 12:06:34;;;;;;;8.13;7.33;;;28.60;60.60;;;;;;4876168;29;20192;-74
2022/06/20 12:09:00;;;;;;;8.43;7.67;;;28.60;60.90;;;;;;4891130;29;20225;-75
2022/06/20 12:12:03;;;;;;;9.23;8.30;;;28.70;61.30;;;;;;4878106;29;20204;-75
2022/06/20 12:14:31;;;;;;;10.97;8.40;;;29.10;61.70;;;;;;4884685;29;20192;-74
2022/06/20 12:17:23;;;;;;;10.63;9.33;;;29.70;59.80;;;;;;4872967;29;20213;-74
2022/06/20 12:25:52;;;;;;;9.30;8.33;;;30.20;55.80;;;;;;4888016;29;20251;-74
2022/06/20 12:28:18;;;;;;;9.77;8.97;;;29.90;59.00;;;;;;4870716;29;20191;-74
2022/06/20 12:31:00;;;;;;;10.60;9.57;;;29.60;61.30;;;;;;4892530;29;20184;-74
2022/06/20 12:33:27;;;;;;;10.07;9.10;;;29.40;62.90;;;;;;4877453;29;20192;-74
2022/06/20 12:35:57;;;;;;;10.90;9.60;;;29.20;63.00;;;;;;4849525;29;20290;-75
2022/06/20 12:38:38;;;;;;;10.13;9.10;;;29.10;64.00;;;;;;4879632;29;20223;-70
2022/06/20 12:41:10;;;;;;;9.63;8.83;;;28.90;64.30;;;;;;4895159;29;20183;-69
2022/06/20 12:44:11;;;;;;;9.93;9.10;;;28.80;64.30;;;;;;4879935;29;20187;-71
2022/06/20 12:46:57;;;;;;;10.77;9.60;;;28.70;65.60;;;;;;4875850;29;20184;-71
2022/06/20 12:49:23;;;;;;;11.37;10.40;;;28.50;64.50;;;;;;4872566;29;20191;-72
2022/06/20 12:51:52;;;;;;;11.43;9.77;;;28.40;67.10;;;;;;4888017;29;20202;-71
2022/06/20 12:54:48;;;;;;;10.67;9.77;;;28.30;67.10;;;;;;4897274;29;20194;-72
2022/06/20 12:57:46;;;;;;;11.00;9.93;;;28.20;68.40;;;;;;4872405;29;20274;-71
2022/06/20 13:00:30;;;;;;;11.47;10.27;;;28.20;67.10;;;;;;4889334;29;20243;-71
2022/06/20 13:03:29;;;;;;;10.67;9.77;;;28.20;68.30;;;;;;4874562;29;20204;-71
2022/06/20 13:06:21;;;;;;;10.77;9.83;;;28.40;68.00;;;;;;4874334;29;20210;-71
2022/06/20 13:09:09;;;;;;;11.17;10.17;;;28.70;68.20;;;;;;4886965;29;20271;-72
2022/06/20 13:11:56;;;;;;;10.43;9.30;;;29.20;67.30;;;;;;4868924;29;20191;-72
2022/06/20 13:14:41;;;;;;;10.80;8.87;;;30.50;63.00;;;;;;4876720;29;20196;-71
2022/06/20 13:17:23;;;;;;;8.93;8.03;;;32.20;56.40;;;;;;4877996;29;20216;-72
2022/06/20 13:20:09;;;;;;;9.10;8.10;;;33.80;52.10;;;;;;4891016;29;20200;-72
2022/06/20 13:22:35;;;;;;;9.40;8.50;;;35.30;47.80;;;;;;4882878;29;20192;-72
2022/06/20 13:25:43;;;;;;;10.97;8.50;;;36.30;45.70;;;;;;4881612;29;20239;-70
2022/06/20 13:28:36;;;;;;;8.45;7.75;;;37.00;45.20;;;;;;4874740;29;20232;-70
2022/06/20 13:31:22;;;;;;;8.10;7.32;;;37.50;43.70;;;;;;4864626;29;20284;-70
2022/06/20 13:33:53;;;;;;;7.93;7.22;;;36.80;44.30;;;;;;4880796;29;20278;-70
2022/06/20 13:36:41;;;;;;;10.60;7.70;;;36.70;45.00;;;;;;4882010;29;20187;-69
2022/06/20 13:39:19;;;;;;;9.95;7.57;;;37.10;44.30;;;;;;4885871;29;20211;-71
2022/06/20 13:42:17;;;;;;;8.35;7.38;;;37.60;43.30;;;;;;4895063;29;20190;-69
2022/06/20 13:45:08;;;;;;;7.85;7.15;;;37.90;41.10;;;;;;4881434;29;20180;-70
2022/06/20 13:47:50;;;;;;;8.13;7.50;;;37.50;44.40;;;;;;4879516;29;20191;-70